createdAt,value
2017-03-19T13:09:55.667Z,0.00
2017-03-19T13:13:08.586Z,0.00
2017-03-19T13:14:10.001Z,0.00
2017-03-19T13:15:11.451Z,0.00
2017-03-19T13:16:35.189Z,0.00
2017-03-19T13:18:43.598Z,0.00
2017-03-19T13:19:20.670Z,0.00
2017-03-19T13:20:58.764Z,0.00
2017-03-19T13:21:30.395Z,0.00
2017-03-19T13:22:19.966Z,0.00
2017-03-19T13:24:08.450Z,0.00
2017-03-19T13:24:42.302Z,0.00
2017-03-19T13:25:46.554Z,996.12
2017-03-19T13:28:22.778Z,996.14
2017-03-19T13:29:03.630Z,996.16
2017-03-19T13:30:05.101Z,996.22
2017-03-19T13:31:06.598Z,996.17
2017-03-19T13:32:08.109Z,996.23
2017-03-19T13:33:09.566Z,996.18
2017-03-19T13:34:11.046Z,996.24
2017-03-19T13:35:12.626Z,996.26
2017-03-19T13:36:14.112Z,996.21
2017-03-19T13:37:15.595Z,996.23
2017-03-19T13:38:17.075Z,996.17
2017-03-19T13:39:18.554Z,996.18
2017-03-19T13:40:20.061Z,996.08
2017-03-19T13:41:21.548Z,996.12
2017-03-19T13:42:23.125Z,996.09
2017-03-19T13:43:24.626Z,996.15
2017-03-19T13:44:26.111Z,996.13
2017-03-19T13:45:27.565Z,996.14
2017-03-19T13:46:29.038Z,996.14
2017-03-19T13:47:30.598Z,996.11
2017-03-19T13:48:32.117Z,996.12
2017-03-19T13:49:34.303Z,996.13
2017-03-19T13:50:36.994Z,996.10
2017-03-19T13:51:38.464Z,996.03
2017-03-19T13:52:39.913Z,996.02
2017-03-19T13:53:41.455Z,996.04
2017-03-19T13:54:43.038Z,995.99
2017-03-19T13:55:44.487Z,995.98
2017-03-19T13:56:46.001Z,995.95
2017-03-19T13:57:47.482Z,995.99
2017-03-19T13:58:48.993Z,995.96
2017-03-19T13:59:50.444Z,996.00
2017-03-19T14:00:51.939Z,995.99
2017-03-19T14:01:53.402Z,996.03
2017-03-19T14:02:54.890Z,996.00
2017-03-19T14:03:56.389Z,996.03
2017-03-19T14:04:57.853Z,996.08
2017-03-19T14:05:59.339Z,995.99
2017-03-19T14:07:00.807Z,995.94
2017-03-19T14:08:02.323Z,995.98
2017-03-19T14:09:03.957Z,995.95
2017-03-19T14:10:05.371Z,995.92
2017-03-19T14:11:06.853Z,995.92
2017-03-19T14:12:08.354Z,995.94
2017-03-19T14:13:09.851Z,995.90
2017-03-19T14:14:11.332Z,995.84
2017-03-19T14:15:12.787Z,995.85
2017-03-19T14:16:14.308Z,995.83
2017-03-19T14:17:15.761Z,995.77
2017-03-19T14:18:17.218Z,995.86
2017-03-19T14:19:18.676Z,995.86
2017-03-19T14:20:20.148Z,995.83
2017-03-19T14:21:21.610Z,995.84
2017-03-19T14:22:23.654Z,995.80
2017-03-19T14:23:25.538Z,995.81
2017-03-19T14:24:26.983Z,995.83
2017-03-19T14:25:28.442Z,995.84
2017-03-19T14:26:30.682Z,995.85
2017-03-19T14:27:32.194Z,995.83
2017-03-19T14:28:33.682Z,995.83
2017-03-19T14:29:35.166Z,995.83
2017-03-19T14:30:36.617Z,995.82
2017-03-19T14:31:38.082Z,995.89
2017-03-19T14:32:39.523Z,995.89
2017-03-19T14:33:40.987Z,995.90
2017-03-19T14:34:42.444Z,995.89
2017-03-19T14:35:43.891Z,995.92
2017-03-19T14:36:45.337Z,995.93
2017-03-19T14:37:46.821Z,995.89
2017-03-19T14:38:48.244Z,995.90
2017-03-19T14:39:49.705Z,995.89
2017-03-19T14:40:51.156Z,995.90
2017-03-19T14:41:52.636Z,995.90
2017-03-19T14:42:54.087Z,995.89
2017-03-19T14:43:55.535Z,995.95
2017-03-19T14:44:57.007Z,995.88
2017-03-19T14:45:58.469Z,995.89
2017-03-19T14:46:59.917Z,995.86
2017-03-19T14:48:01.366Z,995.90
2017-03-19T14:49:02.854Z,995.86
2017-03-19T14:50:04.307Z,995.91
2017-03-19T14:51:05.763Z,995.90
2017-03-19T14:52:07.225Z,995.85
2017-03-19T14:53:08.677Z,995.91
2017-03-19T14:54:10.139Z,995.89
2017-03-19T14:55:11.600Z,995.94
2017-03-19T14:56:13.072Z,995.93
2017-03-19T14:57:14.526Z,995.87
2017-03-19T14:58:16.001Z,995.95
2017-03-19T14:59:17.464Z,995.93
2017-03-19T15:00:18.930Z,995.87
2017-03-19T15:01:20.387Z,995.92
2017-03-19T15:02:21.840Z,995.89
2017-03-19T15:03:23.303Z,995.90
2017-03-19T15:04:24.749Z,995.91
2017-03-19T15:05:26.437Z,995.86
2017-03-19T15:06:27.892Z,995.85
2017-03-19T15:07:29.372Z,995.95
2017-03-19T15:08:30.848Z,995.97
2017-03-19T15:09:32.304Z,995.97
2017-03-19T15:10:33.782Z,995.97
2017-03-19T15:11:35.245Z,995.94
2017-03-19T15:12:36.709Z,995.98
2017-03-19T15:13:38.174Z,995.98
2017-03-19T15:14:39.664Z,995.99
2017-03-19T15:15:41.144Z,995.99
2017-03-19T15:16:42.610Z,995.98
2017-03-19T15:17:44.102Z,996.04
2017-03-19T15:18:45.560Z,996.01
2017-03-19T15:19:47.008Z,996.05
2017-03-19T15:20:48.459Z,996.01
2017-03-19T15:21:49.908Z,995.96
2017-03-19T15:22:51.364Z,996.00
2017-03-19T15:23:52.879Z,995.99
2017-03-19T15:24:54.354Z,995.95
2017-03-19T15:25:55.803Z,996.00
2017-03-19T15:26:57.278Z,995.99
2017-03-19T15:27:58.729Z,995.97
2017-03-19T15:29:00.203Z,995.93
2017-03-19T15:30:01.679Z,995.92
2017-03-19T15:31:03.137Z,995.86
2017-03-19T15:32:04.588Z,995.89
2017-03-19T15:33:06.040Z,995.86
2017-03-19T15:34:07.511Z,995.84
2017-03-19T15:35:08.963Z,995.91
2017-03-19T15:36:10.431Z,995.94
2017-03-19T15:37:11.884Z,995.90
2017-03-19T15:38:13.383Z,995.89
2017-03-19T15:39:14.874Z,995.86
2017-03-19T15:40:16.335Z,995.94
2017-03-19T15:41:17.832Z,995.94
2017-03-19T15:42:19.460Z,995.91
2017-03-19T15:43:20.948Z,995.85
2017-03-19T15:44:22.455Z,995.82
2017-03-19T15:45:23.917Z,995.77
2017-03-19T15:46:25.370Z,995.80
2017-03-19T15:47:26.860Z,995.82
2017-03-19T15:48:28.314Z,995.81
2017-03-19T15:49:29.795Z,995.89
2017-03-19T15:50:31.257Z,995.93
2017-03-19T15:51:32.711Z,995.88
2017-03-19T15:52:34.190Z,995.87
2017-03-19T15:53:35.699Z,995.94
2017-03-19T15:54:37.168Z,995.91
2017-03-19T15:55:38.638Z,995.93
2017-03-19T15:56:40.104Z,995.99
2017-03-19T15:57:41.564Z,995.94
2017-03-19T15:58:43.062Z,995.98
2017-03-19T15:59:44.543Z,995.97
2017-03-19T16:00:46.054Z,995.96
2017-03-19T16:01:47.547Z,995.94
2017-03-19T16:02:49.034Z,995.91
2017-03-19T16:03:50.506Z,995.87
2017-03-19T16:04:52.043Z,995.88
2017-03-19T16:05:53.518Z,995.84
2017-03-19T16:06:55.044Z,995.84
2017-03-19T16:07:56.550Z,995.87
2017-03-19T16:08:58.023Z,995.88
2017-03-19T16:09:59.535Z,995.89
2017-03-19T16:11:01.124Z,995.93
2017-03-19T16:12:02.594Z,995.87
2017-03-19T16:13:04.055Z,995.91
2017-03-19T16:14:05.525Z,995.92
2017-03-19T16:15:06.985Z,995.91
2017-03-19T16:16:08.458Z,995.91
2017-03-19T16:17:09.919Z,995.86
2017-03-19T16:18:11.429Z,995.84
2017-03-19T16:19:12.961Z,995.91
2017-03-19T16:20:14.450Z,995.87
2017-03-19T16:21:15.922Z,995.90
2017-03-19T16:22:17.447Z,995.92
2017-03-19T16:23:18.936Z,995.87
2017-03-19T16:24:20.433Z,995.79
2017-03-19T16:25:22.005Z,995.80
2017-03-19T16:26:23.535Z,995.81
2017-03-19T16:27:25.027Z,995.82
2017-03-19T16:28:26.542Z,995.85
2017-03-19T16:29:28.002Z,995.88
2017-03-19T16:30:29.516Z,995.88
2017-03-19T16:31:30.992Z,995.89
2017-03-19T16:32:32.501Z,995.90
2017-03-19T16:33:34.010Z,995.90
2017-03-19T16:34:35.493Z,995.86
2017-03-19T16:35:36.946Z,995.92
2017-03-19T16:36:38.462Z,995.89
2017-03-19T16:37:40.041Z,995.93
2017-03-19T16:38:41.554Z,995.87
2017-03-19T16:39:43.049Z,995.90
2017-03-19T16:40:44.516Z,995.91
2017-03-19T16:41:45.973Z,995.90
2017-03-19T16:42:48.415Z,995.95
2017-03-19T16:43:49.900Z,995.97
2017-03-19T16:44:51.372Z,995.90
2017-03-19T16:45:53.126Z,995.99
2017-03-19T16:46:54.648Z,995.94
2017-03-19T16:47:56.126Z,995.98
2017-03-19T16:48:57.581Z,995.99
2017-03-19T16:49:59.050Z,995.95
2017-03-19T16:51:00.507Z,995.98
2017-03-19T16:52:01.981Z,996.00
2017-03-19T16:53:03.454Z,995.98
2017-03-19T16:54:04.934Z,996.03
2017-03-19T16:55:06.409Z,996.07
2017-03-19T16:56:07.908Z,996.02
2017-03-19T16:57:09.409Z,996.06
2017-03-19T16:58:10.862Z,996.08
2017-03-19T16:59:12.362Z,996.10
2017-03-19T17:00:13.884Z,996.13
2017-03-19T17:01:15.387Z,996.11
2017-03-19T17:02:16.860Z,996.13
2017-03-19T17:03:18.388Z,996.13
2017-03-19T17:04:19.854Z,996.19
2017-03-19T17:05:21.368Z,996.17
2017-03-19T17:06:22.903Z,996.15
2017-03-19T17:07:24.400Z,996.17
2017-03-19T17:08:25.866Z,996.19
2017-03-19T17:09:27.347Z,996.26
2017-03-19T17:10:28.837Z,996.21
2017-03-19T17:11:30.331Z,996.18
2017-03-19T17:12:31.817Z,996.23
2017-03-19T17:13:33.270Z,996.22
2017-03-19T17:14:34.820Z,996.28
2017-03-19T17:15:36.947Z,996.28
2017-03-19T17:16:38.390Z,996.27
2017-03-19T17:17:39.851Z,996.36
2017-03-19T17:18:41.340Z,996.35
2017-03-19T17:19:42.803Z,996.40
2017-03-19T17:20:44.346Z,996.41
2017-03-19T17:21:45.828Z,996.40
2017-03-19T17:22:47.312Z,996.47
2017-03-19T17:23:48.863Z,996.43
2017-03-19T17:24:50.338Z,996.47
2017-03-19T17:25:51.834Z,996.45
2017-03-19T17:26:53.291Z,996.43
2017-03-19T17:27:54.834Z,996.41
2017-03-19T17:28:56.331Z,996.43
2017-03-19T17:29:57.803Z,996.51
2017-03-19T17:30:59.356Z,996.50
2017-03-19T17:32:00.807Z,996.55
2017-03-19T17:33:02.361Z,996.44
2017-03-19T17:34:03.833Z,996.49
2017-03-19T17:35:05.281Z,996.49
2017-03-19T17:36:06.781Z,996.52
2017-03-19T17:37:08.235Z,996.57
2017-03-19T17:38:09.688Z,996.57
2017-03-19T17:39:11.208Z,996.60
2017-03-19T17:40:12.688Z,996.59
2017-03-19T17:41:14.173Z,996.65
2017-03-19T17:42:15.687Z,996.70
2017-03-19T17:43:17.183Z,996.63
2017-03-19T17:44:18.690Z,996.63
2017-03-19T17:45:20.146Z,996.66
2017-03-19T17:46:21.623Z,996.68
2017-03-19T17:47:23.135Z,996.74
2017-03-19T17:48:24.619Z,996.73
2017-03-19T17:49:26.096Z,996.76
2017-03-19T17:50:27.557Z,996.79
2017-03-19T17:51:29.126Z,996.82
2017-03-19T17:52:30.657Z,996.76
2017-03-19T17:53:32.152Z,996.77
2017-03-19T17:54:33.714Z,996.76
2017-03-19T17:55:35.227Z,996.78
2017-03-19T17:56:36.693Z,996.80
2017-03-19T17:57:38.163Z,996.80
2017-03-19T17:58:39.641Z,996.79
2017-03-19T17:59:41.098Z,996.78
2017-03-19T18:00:42.549Z,996.81
2017-03-19T18:01:44.033Z,996.83
2017-03-19T18:02:45.532Z,996.78
2017-03-19T18:03:47.010Z,996.78
2017-03-19T18:04:48.519Z,996.75
2017-03-19T18:05:50.029Z,996.74
2017-03-19T18:06:51.523Z,996.75
2017-03-19T18:07:53.089Z,996.74
2017-03-19T18:08:54.542Z,996.79
2017-03-19T18:09:56.115Z,996.76
2017-03-19T18:10:57.646Z,996.81
2017-03-19T18:11:59.138Z,996.80
2017-03-19T18:13:00.593Z,996.75
2017-03-19T18:14:02.052Z,996.82
2017-03-19T18:15:03.554Z,996.83
2017-03-19T18:16:05.028Z,996.81
2017-03-19T18:17:06.504Z,996.83
2017-03-19T18:18:07.962Z,996.84
2017-03-19T18:19:09.400Z,996.78
2017-03-19T18:20:10.900Z,996.81
2017-03-19T18:21:12.347Z,996.77
2017-03-19T18:22:13.849Z,996.83
2017-03-19T18:23:15.297Z,996.92
2017-03-19T18:24:16.848Z,996.95
2017-03-19T18:25:18.295Z,996.95
2017-03-19T18:26:19.758Z,996.92
2017-03-19T18:27:21.242Z,996.86
2017-03-19T18:28:22.727Z,996.82
2017-03-19T18:29:24.301Z,996.86
2017-03-19T18:30:25.789Z,996.83
2017-03-19T18:31:27.281Z,996.79
2017-03-19T18:32:28.766Z,996.80
2017-03-19T18:33:30.283Z,996.78
2017-03-19T18:34:31.766Z,996.78
2017-03-19T18:35:33.305Z,996.72
2017-03-19T18:36:34.789Z,996.74
2017-03-19T18:37:36.245Z,996.82
2017-03-19T18:38:37.688Z,996.79
2017-03-19T18:39:39.152Z,996.79
2017-03-19T18:40:40.609Z,996.83
2017-03-19T18:41:42.070Z,996.81
2017-03-19T18:42:43.539Z,996.84
2017-03-19T18:43:44.988Z,996.83
2017-03-19T18:44:46.439Z,996.81
2017-03-19T18:45:47.934Z,996.81
2017-03-19T18:46:49.431Z,996.85
2017-03-19T18:47:50.894Z,996.87
2017-03-19T18:48:52.397Z,996.85
2017-03-19T18:49:53.901Z,996.83
2017-03-19T18:50:55.349Z,996.83
2017-03-19T18:51:56.816Z,996.83
2017-03-19T18:52:58.310Z,996.85
2017-03-19T18:53:59.778Z,996.80
2017-03-19T18:55:01.293Z,996.81
2017-03-19T18:56:02.766Z,996.81
2017-03-19T18:57:04.213Z,996.91
2017-03-19T18:58:05.690Z,996.88
2017-03-19T18:59:10.409Z,996.90
2017-03-19T19:00:11.923Z,996.83
2017-03-19T19:01:13.379Z,996.90
2017-03-19T19:02:14.896Z,996.90
2017-03-19T19:03:16.492Z,996.86
2017-03-19T19:04:18.053Z,996.84
2017-03-19T19:05:19.539Z,996.85
2017-03-19T19:06:20.990Z,996.90
2017-03-19T19:07:22.446Z,996.86
2017-03-19T19:08:23.962Z,996.81
2017-03-19T19:09:25.472Z,996.82
2017-03-19T19:10:26.994Z,996.82
2017-03-19T19:11:28.511Z,996.80
2017-03-19T19:12:30.512Z,996.84
2017-03-19T19:13:32.053Z,996.82
2017-03-19T19:14:33.497Z,996.79
2017-03-19T19:15:35.036Z,996.83
2017-03-19T19:16:36.502Z,996.83
2017-03-19T19:17:38.049Z,996.84
2017-03-19T19:18:39.463Z,996.89
2017-03-19T19:19:40.917Z,996.86
2017-03-19T19:20:42.379Z,996.86
2017-03-19T19:21:43.863Z,996.83
2017-03-19T19:22:45.346Z,996.93
2017-03-19T19:23:46.826Z,996.94
2017-03-19T19:24:48.370Z,996.89
2017-03-19T19:25:49.865Z,996.90
2017-03-19T19:26:51.417Z,996.96
2017-03-19T19:27:52.888Z,996.98
2017-03-19T19:28:54.329Z,996.93
2017-03-19T19:29:55.819Z,996.96
2017-03-19T19:30:57.272Z,996.96
2017-03-19T19:31:58.835Z,996.95
2017-03-19T19:33:00.387Z,996.98
2017-03-19T19:34:01.979Z,996.96
2017-03-19T19:35:03.439Z,997.00
2017-03-19T19:36:04.907Z,996.98
2017-03-19T19:37:06.367Z,997.04
2017-03-19T19:38:07.832Z,996.98
2017-03-19T19:39:09.289Z,997.01
2017-03-19T19:40:10.745Z,997.00
2017-03-19T19:41:12.193Z,997.03
2017-03-19T19:42:13.649Z,996.98
2017-03-19T19:43:15.111Z,997.00
2017-03-19T19:44:16.588Z,996.93
2017-03-19T19:45:18.033Z,996.98
2017-03-19T19:46:19.531Z,996.96
2017-03-19T19:47:20.981Z,997.00
2017-03-19T19:48:22.453Z,997.01
2017-03-19T19:49:23.907Z,996.94
2017-03-19T19:50:25.369Z,996.95
2017-03-19T19:51:26.850Z,997.03
2017-03-19T19:52:28.342Z,997.00
2017-03-19T19:53:29.845Z,997.06
2017-03-19T19:54:31.366Z,997.03
2017-03-19T19:55:32.842Z,997.02
2017-03-19T19:56:34.302Z,997.05
2017-03-19T19:57:35.749Z,997.04
2017-03-19T19:58:37.250Z,997.02
2017-03-19T19:59:38.758Z,997.05
2017-03-19T20:00:40.274Z,997.04
2017-03-19T20:01:41.765Z,997.01
2017-03-19T20:02:43.254Z,997.11
2017-03-19T20:03:44.709Z,997.11
2017-03-19T20:04:46.166Z,997.11
2017-03-19T20:05:47.802Z,997.11
2017-03-19T20:06:49.253Z,997.09
2017-03-19T20:07:50.733Z,997.10
2017-03-19T20:08:52.214Z,997.10
2017-03-19T20:09:53.671Z,997.10
2017-03-19T20:10:55.186Z,997.11
2017-03-19T20:11:56.637Z,997.12
2017-03-19T20:12:58.143Z,997.17
2017-03-19T20:13:59.590Z,997.12
2017-03-19T20:15:01.088Z,997.16
2017-03-19T20:16:02.539Z,997.23
2017-03-19T20:17:04.029Z,997.22
2017-03-19T20:18:05.546Z,997.23
2017-03-19T20:19:07.003Z,997.28
2017-03-19T20:20:08.489Z,997.25
2017-03-19T20:21:09.956Z,997.28
2017-03-19T20:22:11.407Z,997.31
2017-03-19T20:23:12.963Z,997.31
2017-03-19T20:24:14.417Z,997.35
2017-03-19T20:25:15.875Z,997.33
2017-03-19T20:26:17.368Z,997.31
2017-03-19T20:27:18.856Z,997.30
2017-03-19T20:28:20.331Z,997.32
2017-03-19T20:29:21.845Z,997.31
2017-03-19T20:30:23.339Z,997.36
2017-03-19T20:31:24.805Z,997.40
2017-03-19T20:32:26.311Z,997.36
2017-03-19T20:33:27.809Z,997.33
2017-03-19T20:34:29.352Z,997.41
2017-03-19T20:35:30.829Z,997.43
2017-03-19T20:36:32.300Z,997.39
2017-03-19T20:37:33.783Z,997.41
2017-03-19T20:38:35.251Z,997.37
2017-03-19T20:39:36.699Z,997.41
2017-03-19T20:40:38.186Z,997.37
2017-03-19T20:41:39.652Z,997.42
2017-03-19T20:42:41.109Z,997.39
2017-03-19T20:43:42.559Z,997.40
2017-03-19T20:44:44.070Z,997.39
2017-03-19T20:45:45.562Z,997.42
2017-03-19T20:46:47.061Z,997.49
2017-03-19T20:47:48.638Z,997.49
2017-03-19T20:48:50.127Z,997.51
2017-03-19T20:49:51.623Z,997.52
2017-03-19T20:50:53.085Z,997.48
2017-03-19T20:51:54.545Z,997.49
2017-03-19T20:52:56.038Z,997.51
2017-03-19T20:53:57.500Z,997.48
2017-03-19T20:54:58.968Z,997.48
2017-03-19T20:56:00.419Z,997.52
2017-03-19T20:57:01.869Z,997.54
2017-03-19T20:58:03.335Z,997.60
2017-03-19T20:59:04.792Z,997.57
2017-03-19T21:00:06.266Z,997.61
2017-03-19T21:01:07.748Z,997.65
2017-03-19T21:02:09.228Z,997.64
2017-03-19T21:03:10.758Z,997.68
2017-03-19T21:04:12.231Z,997.63
2017-03-19T21:05:13.716Z,997.69
2017-03-19T21:06:15.168Z,997.65
2017-03-19T21:07:16.620Z,997.63
2017-03-19T21:08:18.154Z,997.68
2017-03-19T21:09:19.653Z,997.63
2017-03-19T21:10:21.127Z,997.64
2017-03-19T21:11:22.582Z,997.59
2017-03-19T21:12:24.051Z,997.57
2017-03-19T21:13:25.510Z,997.62
2017-03-19T21:14:26.991Z,997.54
2017-03-19T21:15:28.462Z,997.61
2017-03-19T21:16:29.908Z,997.66
2017-03-19T21:17:31.370Z,997.65
2017-03-19T21:18:32.824Z,997.63
2017-03-19T21:19:34.304Z,997.67
2017-03-19T21:20:35.767Z,997.65
2017-03-19T21:21:37.257Z,997.74
2017-03-19T21:22:38.804Z,997.76
2017-03-19T21:23:40.254Z,997.67
2017-03-19T21:24:41.716Z,997.74
2017-03-19T21:25:43.190Z,997.79
2017-03-19T21:26:44.725Z,997.77
2017-03-19T21:27:46.176Z,997.84
2017-03-19T21:28:47.632Z,997.83
2017-03-19T21:29:49.092Z,997.87
2017-03-19T21:30:50.658Z,997.92
2017-03-19T21:31:52.152Z,997.91
2017-03-19T21:32:54.587Z,997.95
2017-03-19T21:33:56.055Z,997.96
2017-03-19T21:34:57.513Z,997.92
2017-03-19T21:35:58.968Z,997.92
2017-03-19T21:37:00.468Z,997.96
2017-03-19T21:38:01.961Z,997.91
2017-03-19T21:39:03.420Z,997.88
2017-03-19T21:40:04.911Z,997.96
2017-03-19T21:41:06.360Z,997.93
2017-03-19T21:42:07.809Z,997.90
2017-03-19T21:43:09.316Z,997.87
2017-03-19T21:44:10.779Z,997.93
2017-03-19T21:45:12.244Z,997.92
2017-03-19T21:46:13.723Z,997.92
2017-03-19T21:47:15.184Z,997.92
2017-03-19T21:48:16.674Z,997.89
2017-03-19T21:49:18.161Z,997.95
2017-03-19T21:50:19.673Z,997.96
2017-03-19T21:51:21.170Z,997.96
2017-03-19T21:52:22.662Z,997.99
2017-03-19T21:53:24.159Z,997.94
2017-03-19T21:54:25.616Z,997.96
2017-03-19T21:55:27.073Z,997.94
2017-03-19T21:56:28.557Z,997.96
2017-03-19T21:57:30.022Z,997.97
2017-03-19T21:58:31.491Z,997.87
2017-03-19T21:59:32.943Z,997.88
2017-03-19T22:00:34.421Z,997.87
2017-03-19T22:01:35.886Z,997.86
2017-03-19T22:02:37.367Z,997.84
2017-03-19T22:03:38.829Z,997.83
2017-03-19T22:04:40.312Z,997.87
2017-03-19T22:05:41.772Z,997.93
2017-03-19T22:06:43.268Z,997.88
2017-03-19T22:07:44.737Z,997.93
2017-03-19T22:08:46.211Z,997.91
2017-03-19T22:09:47.719Z,997.91
2017-03-19T22:10:49.198Z,997.88
2017-03-19T22:11:50.671Z,997.86
2017-03-19T22:12:52.156Z,997.91
2017-03-19T22:13:53.609Z,997.90
2017-03-19T22:14:55.099Z,997.94
2017-03-19T22:15:56.557Z,997.94
2017-03-19T22:16:58.006Z,997.94
2017-03-19T22:17:59.464Z,998.01
2017-03-19T22:19:00.920Z,997.99
2017-03-19T22:20:02.395Z,997.95
2017-03-19T22:21:03.853Z,997.99
2017-03-19T22:22:05.314Z,998.00
2017-03-19T22:23:06.767Z,998.01
2017-03-19T22:24:08.241Z,997.99
2017-03-19T22:25:09.698Z,998.04
2017-03-19T22:26:11.175Z,998.04
2017-03-19T22:27:12.630Z,998.08
2017-03-19T22:28:14.083Z,998.08
2017-03-19T22:29:15.529Z,998.07
2017-03-19T22:30:16.980Z,998.06
2017-03-19T22:31:18.463Z,998.03
2017-03-19T22:32:19.916Z,998.04
2017-03-19T22:33:21.412Z,998.11
2017-03-19T22:34:22.992Z,998.08
2017-03-19T22:35:24.445Z,998.12
2017-03-19T22:36:25.909Z,998.13
2017-03-19T22:37:27.388Z,998.16
2017-03-19T22:38:28.877Z,998.15
2017-03-19T22:39:30.325Z,998.10
2017-03-19T22:40:31.747Z,998.12
2017-03-19T22:41:33.210Z,998.10
2017-03-19T22:42:34.727Z,998.04
2017-03-19T22:43:36.208Z,998.04
2017-03-19T22:44:37.669Z,998.03
2017-03-19T22:45:39.154Z,998.02
2017-03-19T22:46:40.620Z,998.07
2017-03-19T22:47:42.068Z,998.00
2017-03-19T22:48:43.522Z,998.04
2017-03-19T22:49:45.025Z,997.99
2017-03-19T22:50:46.503Z,997.99
2017-03-19T22:51:47.966Z,997.98
2017-03-19T22:52:49.446Z,998.03
2017-03-19T22:53:50.874Z,998.04
2017-03-19T22:54:52.326Z,998.07
2017-03-19T22:55:53.798Z,998.10
2017-03-19T22:56:55.254Z,998.15
2017-03-19T22:57:56.697Z,998.13
2017-03-19T22:58:58.208Z,998.16
2017-03-19T22:59:59.665Z,998.12
2017-03-19T23:01:01.132Z,998.15
2017-03-19T23:02:02.583Z,998.14
2017-03-19T23:03:04.093Z,998.17
2017-03-19T23:04:05.588Z,998.13
2017-03-19T23:05:07.049Z,998.07
2017-03-19T23:06:08.504Z,998.09
2017-03-19T23:07:09.964Z,998.10
2017-03-19T23:08:11.443Z,998.13
2017-03-19T23:09:12.895Z,998.10
2017-03-19T23:10:14.394Z,998.11
2017-03-19T23:11:15.851Z,998.16
2017-03-19T23:12:17.341Z,998.20
2017-03-19T23:13:18.804Z,998.17
2017-03-19T23:14:20.293Z,998.14
2017-03-19T23:15:21.777Z,998.20
2017-03-19T23:16:23.245Z,998.24
2017-03-19T23:17:24.699Z,998.21
2017-03-19T23:18:26.166Z,998.28
2017-03-19T23:19:27.626Z,998.28
2017-03-19T23:20:29.079Z,998.27
2017-03-19T23:21:30.575Z,998.29
2017-03-19T23:22:32.039Z,998.37
2017-03-19T23:23:33.503Z,998.35
2017-03-19T23:24:34.968Z,998.24
2017-03-19T23:25:36.430Z,998.28
2017-03-19T23:26:37.882Z,998.26
2017-03-19T23:27:39.328Z,998.28
2017-03-19T23:28:40.787Z,998.28
2017-03-19T23:29:42.239Z,998.27
2017-03-19T23:30:43.763Z,998.34
2017-03-19T23:31:45.239Z,998.31
2017-03-19T23:32:46.721Z,998.30
2017-03-19T23:33:48.175Z,998.38
2017-03-19T23:34:49.710Z,998.34
2017-03-19T23:35:51.155Z,998.34
2017-03-19T23:36:52.614Z,998.33
2017-03-19T23:37:54.088Z,998.36
2017-03-19T23:38:55.603Z,998.37
2017-03-19T23:39:57.056Z,998.42
2017-03-19T23:40:58.537Z,998.39
2017-03-19T23:41:59.983Z,998.39
2017-03-19T23:43:01.444Z,998.36
2017-03-19T23:44:02.924Z,998.35
2017-03-19T23:45:04.350Z,998.37
2017-03-19T23:46:05.817Z,998.39
2017-03-19T23:47:07.272Z,998.31
2017-03-19T23:48:08.729Z,998.34
2017-03-19T23:49:10.184Z,998.29
2017-03-19T23:50:11.638Z,998.34
2017-03-19T23:51:13.097Z,998.34
2017-03-19T23:52:14.543Z,998.35
2017-03-19T23:53:15.998Z,998.35
2017-03-19T23:54:17.449Z,998.35
2017-03-19T23:55:18.901Z,998.32
2017-03-19T23:56:20.380Z,998.33
2017-03-19T23:57:21.843Z,998.36
2017-03-19T23:58:23.311Z,998.33
2017-03-19T23:59:24.791Z,998.36
